Time;durP1;ratioP1;P1;durP2;ratioP2;P2;SDS_P1;SDS_P2;PMS_P1;PMS_P2;Temp;Humidity;BMP_temperature;BMP_pressure;BME280_temperature;BME280_humidity;BME280_pressure;Samples;Min_cycle;Max_cycle;Signal;HPM_P1;HPM_P2
2022/05/15 00:00:57;;;;;;;4.30;3.50;;;18.40;48.80;;;;;;5070594;28;20207;-46
2022/05/15 00:03:24;;;;;;;4.50;4.10;;;18.30;48.60;;;;;;5058620;28;20427;-46
2022/05/15 00:05:55;;;;;;;4.20;3.80;;;18.40;48.40;;;;;;5057273;28;20192;-44
2022/05/15 00:08:22;;;;;;;5.67;4.20;;;18.30;48.40;;;;;;5071078;28;20513;-43
2022/05/15 00:10:48;;;;;;;7.40;3.93;;;18.20;48.90;;;;;;5070576;28;20812;-47
2022/05/15 00:13:14;;;;;;;3.60;3.30;;;18.20;48.60;;;;;;5071030;28;20906;-45
2022/05/15 00:15:41;;;;;;;4.10;3.30;;;18.40;48.20;;;;;;5070552;28;20430;-46
2022/05/15 00:18:08;;;;;;;4.00;3.50;;;18.50;48.00;;;;;;5070884;28;20430;-44
2022/05/15 00:20:34;;;;;;;4.63;2.97;;;18.70;47.90;;;;;;5070311;28;20430;-44
2022/05/15 00:23:00;;;;;;;4.30;3.60;;;18.70;47.80;;;;;;5068934;28;20514;-43
2022/05/15 00:25:26;;;;;;;4.77;3.50;;;18.70;47.70;;;;;;5070357;28;20509;-43
2022/05/15 00:27:51;;;;;;;3.80;3.10;;;18.80;47.50;;;;;;5070999;28;20920;-44
2022/05/15 00:30:18;;;;;;;3.47;3.07;;;18.90;47.30;;;;;;5070171;28;20231;-44
2022/05/15 00:32:44;;;;;;;3.53;3.23;;;19.00;47.00;;;;;;5070417;28;20209;-47
2022/05/15 00:35:10;;;;;;;3.90;3.53;;;19.00;46.90;;;;;;5070440;28;20484;-44
2022/05/15 00:37:36;;;;;;;3.70;3.30;;;18.80;46.90;;;;;;5070701;28;20434;-44
2022/05/15 00:40:03;;;;;;;4.20;3.03;;;18.90;47.10;;;;;;5070180;28;20909;-42
2022/05/15 00:42:29;;;;;;;9.50;3.20;;;18.80;47.10;;;;;;5070076;28;20230;-42
2022/05/15 00:44:55;;;;;;;3.50;3.00;;;18.70;47.50;;;;;;5069856;28;20997;-43
2022/05/15 00:47:20;;;;;;;6.00;4.83;;;18.40;47.90;;;;;;5070622;28;20529;-43
2022/05/15 00:49:47;;;;;;;4.20;3.30;;;18.10;48.60;;;;;;5068459;28;20215;-45
2022/05/15 00:52:16;;;;;;;5.77;3.20;;;17.90;49.40;;;;;;5070025;28;20192;-45
2022/05/15 00:54:44;;;;;;;3.50;3.20;;;17.90;49.90;;;;;;5070505;28;20460;-44
2022/05/15 00:57:15;;;;;;;4.70;3.00;;;17.90;49.40;;;;;;5070286;28;20921;-43
2022/05/15 00:59:58;;;;;;;3.60;3.30;;;17.90;49.50;;;;;;5070435;28;20475;-45
2022/05/15 01:02:27;;;;;;;3.47;3.17;;;17.90;49.30;;;;;;5065525;28;20475;-46
2022/05/15 01:04:53;;;;;;;5.67;3.93;;;17.80;49.50;;;;;;5062638;28;20423;-44
2022/05/15 01:07:19;;;;;;;5.80;3.73;;;17.90;49.70;;;;;;5070248;28;20434;-44
2022/05/15 01:09:45;;;;;;;3.47;3.17;;;17.90;49.40;;;;;;5069802;28;20220;-43
2022/05/15 01:12:11;;;;;;;3.67;3.33;;;17.90;49.40;;;;;;5069659;28;20214;-43
2022/05/15 01:14:42;;;;;;;3.60;3.30;;;18.00;49.40;;;;;;5069605;28;20430;-45
2022/05/15 01:17:08;;;;;;;5.10;3.73;;;18.00;49.40;;;;;;5068099;28;20905;-43
2022/05/15 01:19:38;;;;;;;4.60;3.33;;;18.00;49.40;;;;;;5070148;28;20445;-43
2022/05/15 01:22:06;;;;;;;5.30;3.43;;;18.00;49.30;;;;;;5069480;28;20196;-43
2022/05/15 01:24:32;;;;;;;4.83;3.50;;;18.00;49.40;;;;;;5070227;28;20446;-44
2022/05/15 01:27:04;;;;;;;4.10;3.30;;;18.00;49.40;;;;;;5070014;28;20799;-43
2022/05/15 01:29:35;;;;;;;7.57;4.93;;;18.00;49.30;;;;;;5069886;28;20508;-44
2022/05/15 01:32:01;;;;;;;4.23;3.83;;;18.00;49.50;;;;;;5069117;28;20462;-43
2022/05/15 01:34:27;;;;;;;3.47;3.17;;;17.90;49.60;;;;;;5069941;28;20459;-43
2022/05/15 01:36:54;;;;;;;5.00;3.43;;;17.80;50.20;;;;;;5069486;28;20203;-44
2022/05/15 01:39:20;;;;;;;4.10;3.70;;;17.70;50.10;;;;;;5070109;28;20187;-43
2022/05/15 01:41:45;;;;;;;5.67;3.50;;;17.80;50.00;;;;;;5069172;28;20425;-45
2022/05/15 01:44:11;;;;;;;3.03;2.83;;;17.90;49.90;;;;;;5068414;28;20425;-44
2022/05/15 01:46:37;;;;;;;3.33;3.13;;;17.70;50.10;;;;;;5069249;28;20253;-45
2022/05/15 01:49:06;;;;;;;4.10;3.30;;;17.70;50.20;;;;;;5069880;28;20223;-46
2022/05/15 01:51:33;;;;;;;4.33;3.67;;;17.80;50.20;;;;;;5068900;28;20779;-44
2022/05/15 01:53:59;;;;;;;4.23;3.70;;;17.80;50.20;;;;;;5069259;28;20445;-43
2022/05/15 01:56:25;;;;;;;3.60;3.30;;;17.80;50.20;;;;;;5069118;28;20522;-47
2022/05/15 01:58:51;;;;;;;5.70;3.70;;;17.60;50.10;;;;;;5069625;28;20505;-46
2022/05/15 02:01:16;;;;;;;3.50;3.20;;;17.60;50.40;;;;;;5068832;28;20227;-43
2022/05/15 02:03:42;;;;;;;3.50;3.20;;;17.10;51.50;;;;;;5056844;28;20185;-43
2022/05/15 02:06:08;;;;;;;3.93;3.50;;;17.10;51.40;;;;;;5068980;28;20278;-43
2022/05/15 02:08:35;;;;;;;2.60;2.40;;;17.20;51.50;;;;;;5069523;28;20227;-43
2022/05/15 02:11:01;;;;;;;3.83;3.40;;;17.00;51.70;;;;;;5066705;28;20258;-43
2022/05/15 02:13:26;;;;;;;5.03;3.77;;;17.00;51.70;;;;;;5069687;28;20952;-45
2022/05/15 02:15:52;;;;;;;5.33;3.37;;;17.00;51.60;;;;;;5069281;28;20216;-43
2022/05/15 02:18:18;;;;;;;3.27;3.07;;;17.00;51.70;;;;;;5069598;28;20196;-47
2022/05/15 02:20:43;;;;;;;6.43;3.40;;;17.10;51.50;;;;;;5069086;28;20271;-45
2022/05/15 02:23:09;;;;;;;3.13;2.93;;;17.10;51.40;;;;;;5069166;28;20188;-44
2022/05/15 02:25:35;;;;;;;5.27;3.50;;;17.20;51.20;;;;;;5071385;28;20749;-43
2022/05/15 02:28:01;;;;;;;3.53;3.23;;;17.20;51.30;;;;;;5073196;28;20196;-46
2022/05/15 02:30:27;;;;;;;4.13;3.73;;;17.30;51.30;;;;;;5072573;28;20825;-46
2022/05/15 02:32:53;;;;;;;5.50;3.70;;;17.40;51.10;;;;;;5072829;28;20196;-43
2022/05/15 02:35:18;;;;;;;6.30;4.23;;;17.30;51.00;;;;;;5072683;28;20917;-47
2022/05/15 02:37:47;;;;;;;4.30;3.90;;;17.30;51.10;;;;;;5071389;28;20196;-45
2022/05/15 02:40:14;;;;;;;4.60;3.90;;;17.30;51.20;;;;;;5072242;28;20206;-46
2022/05/15 02:42:40;;;;;;;5.53;3.30;;;17.20;51.40;;;;;;5072518;28;20518;-43
2022/05/15 02:45:06;;;;;;;3.80;3.47;;;17.00;51.80;;;;;;5072510;28;20521;-45
2022/05/15 02:47:32;;;;;;;3.20;2.70;;;17.00;52.00;;;;;;5072446;28;20712;-42
2022/05/15 02:52:42;;;;;;;3.87;3.47;;;16.90;52.10;;;;;;5072475;28;20499;-42
2022/05/15 02:55:08;;;;;;;3.47;3.03;;;16.90;51.80;;;;;;5072128;28;20421;-44
2022/05/15 02:57:33;;;;;;;5.17;3.77;;;16.70;52.20;;;;;;5072251;28;20188;-43
2022/05/15 02:59:59;;;;;;;4.37;3.43;;;16.80;52.30;;;;;;5072040;28;20196;-42
2022/05/15 03:02:25;;;;;;;3.73;3.33;;;16.90;52.10;;;;;;5067709;28;20232;-44
2022/05/15 03:04:51;;;;;;;3.30;3.00;;;16.90;51.90;;;;;;5062412;28;20208;-43
2022/05/15 03:07:18;;;;;;;3.63;3.20;;;16.90;52.00;;;;;;5072241;28;20203;-42
2022/05/15 03:09:43;;;;;;;3.30;3.00;;;16.80;52.00;;;;;;5072226;28;20605;-42
2022/05/15 03:12:09;;;;;;;4.30;3.30;;;16.70;52.30;;;;;;5071463;28;20529;-44
2022/05/15 03:14:35;;;;;;;5.10;3.20;;;16.60;52.70;;;;;;5072431;28;20619;-44
2022/05/15 03:17:00;;;;;;;5.10;3.73;;;16.50;53.00;;;;;;5070258;28;20199;-43
2022/05/15 03:19:26;;;;;;;4.53;3.33;;;16.40;53.00;;;;;;5072341;28;20196;-42
2022/05/15 03:21:52;;;;;;;3.83;3.43;;;16.50;53.10;;;;;;5071231;28;20199;-43
2022/05/15 03:24:18;;;;;;;6.40;3.40;;;16.50;53.00;;;;;;5072298;28;20192;-43
2022/05/15 03:26:46;;;;;;;3.70;3.00;;;16.50;52.80;;;;;;5071671;28;20510;-43
2022/05/15 03:29:14;;;;;;;4.07;3.67;;;16.40;52.80;;;;;;5072366;28;20262;-42
2022/05/15 03:31:40;;;;;;;5.40;3.90;;;16.30;53.10;;;;;;5069524;28;20514;-46
2022/05/15 03:34:09;;;;;;;4.03;3.63;;;16.40;53.20;;;;;;5072010;28;20597;-42
2022/05/15 03:36:37;;;;;;;4.40;4.00;;;16.30;53.40;;;;;;5070617;28;20256;-43
2022/05/15 03:39:04;;;;;;;5.20;4.20;;;16.40;53.20;;;;;;5071985;28;20924;-43
2022/05/15 03:41:29;;;;;;;7.13;3.40;;;16.30;53.40;;;;;;5070943;28;20430;-43
2022/05/15 03:43:55;;;;;;;4.20;3.80;;;16.30;53.40;;;;;;5070707;28;20422;-43
2022/05/15 03:46:20;;;;;;;6.80;3.40;;;16.30;53.50;;;;;;5071137;28;20184;-43
2022/05/15 03:48:46;;;;;;;4.30;3.60;;;16.20;53.60;;;;;;5071680;28;20184;-42
2022/05/15 03:51:12;;;;;;;3.83;3.50;;;16.10;53.60;;;;;;5070565;28;20238;-44
2022/05/15 03:53:38;;;;;;;6.70;3.33;;;16.00;54.00;;;;;;5071608;28;20196;-43
2022/05/15 03:56:04;;;;;;;3.50;3.20;;;16.00;54.20;;;;;;5070995;28;20415;-43
2022/05/15 03:58:33;;;;;;;4.00;3.57;;;15.90;54.40;;;;;;5070084;28;20195;-45
2022/05/15 04:00:59;;;;;;;3.23;2.93;;;16.10;54.30;;;;;;5070480;28;20430;-44
2022/05/15 04:03:25;;;;;;;4.13;3.73;;;16.20;53.80;;;;;;5058950;28;20930;-42
2022/05/15 04:05:50;;;;;;;3.87;3.47;;;16.40;53.50;;;;;;5070775;28;20188;-43
2022/05/15 04:08:16;;;;;;;7.27;4.33;;;16.50;53.10;;;;;;5071155;28;20192;-42
2022/05/15 04:10:42;;;;;;;3.47;3.17;;;16.60;52.90;;;;;;5070740;28;20236;-44
2022/05/15 04:13:07;;;;;;;4.10;3.40;;;16.70;52.80;;;;;;5071064;28;20643;-43
2022/05/15 04:15:33;;;;;;;4.20;3.40;;;16.70;52.60;;;;;;5070458;28;20242;-46
2022/05/15 04:17:59;;;;;;;3.23;2.93;;;16.50;52.90;;;;;;5071096;28;20199;-43
2022/05/15 04:20:28;;;;;;;6.07;3.67;;;16.10;54.10;;;;;;5070600;28;20414;-42
2022/05/15 04:22:54;;;;;;;4.50;3.30;;;16.00;54.30;;;;;;5069506;28;20430;-42
2022/05/15 04:25:20;;;;;;;5.10;3.77;;;16.00;54.70;;;;;;5068552;28;20429;-43
2022/05/15 04:27:47;;;;;;;6.90;3.90;;;16.10;54.40;;;;;;5071152;28;20514;-42
2022/05/15 04:30:18;;;;;;;4.57;3.47;;;16.00;54.50;;;;;;5070564;28;20482;-44
2022/05/15 04:32:44;;;;;;;4.47;3.93;;;16.00;54.70;;;;;;5070867;28;20430;-45
2022/05/15 04:35:10;;;;;;;4.83;3.53;;;16.10;54.90;;;;;;5070082;28;20422;-43
2022/05/15 04:37:36;;;;;;;3.83;3.40;;;16.20;54.60;;;;;;5070818;28;20563;-46
2022/05/15 04:40:03;;;;;;;3.80;3.40;;;16.30;54.50;;;;;;5070188;28;20187;-44
2022/05/15 04:42:30;;;;;;;4.03;3.73;;;16.40;54.20;;;;;;5070557;28;20936;-43
2022/05/15 04:44:56;;;;;;;3.60;3.30;;;16.30;54.30;;;;;;5070030;28;20788;-45
2022/05/15 04:47:22;;;;;;;3.40;3.10;;;16.20;54.40;;;;;;5070332;28;20424;-44
2022/05/15 04:49:49;;;;;;;3.70;3.40;;;16.00;54.80;;;;;;5069984;28;20707;-44
2022/05/15 04:52:15;;;;;;;3.70;3.30;;;16.00;55.00;;;;;;5068251;28;20665;-43
2022/05/15 04:54:41;;;;;;;4.40;4.00;;;16.10;55.10;;;;;;5070573;28;20449;-43
2022/05/15 04:57:06;;;;;;;4.03;3.20;;;16.10;54.90;;;;;;5070273;28;20196;-42
2022/05/15 04:59:32;;;;;;;4.73;3.40;;;16.20;54.70;;;;;;5070149;28;20666;-43
2022/05/15 05:01:58;;;;;;;5.90;3.50;;;16.20;54.60;;;;;;5068503;28;20261;-44
2022/05/15 05:04:24;;;;;;;5.27;3.67;;;16.30;54.60;;;;;;5058267;28;20203;-42
2022/05/15 05:06:51;;;;;;;4.43;4.03;;;16.50;54.30;;;;;;5069772;28;20418;-43
2022/05/15 05:09:17;;;;;;;7.17;3.80;;;16.50;54.10;;;;;;5070106;28;20538;-43
2022/05/15 05:11:42;;;;;;;4.37;3.67;;;16.50;54.30;;;;;;5069464;28;20414;-43
2022/05/15 05:14:08;;;;;;;5.33;4.10;;;16.60;54.20;;;;;;5070143;28;20487;-43
2022/05/15 05:16:34;;;;;;;4.80;4.20;;;16.50;54.10;;;;;;5069572;28;20192;-43
2022/05/15 05:19:01;;;;;;;4.80;4.07;;;16.50;54.30;;;;;;5068707;28;20449;-46
2022/05/15 05:21:27;;;;;;;3.90;3.60;;;16.60;54.20;;;;;;5068833;28;20568;-42
2022/05/15 05:23:53;;;;;;;4.33;3.73;;;16.80;54.10;;;;;;5070046;28;20422;-43
2022/05/15 05:26:18;;;;;;;4.63;3.43;;;16.90;54.10;;;;;;5069463;28;20192;-43
2022/05/15 05:28:44;;;;;;;6.73;3.70;;;17.00;53.90;;;;;;5070058;28;20263;-44
2022/05/15 05:31:10;;;;;;;6.17;4.23;;;17.00;53.80;;;;;;5069115;28;20219;-43
2022/05/15 05:33:36;;;;;;;9.63;6.80;;;17.00;53.70;;;;;;5070051;28;20210;-44
2022/05/15 05:36:02;;;;;;;9.00;6.67;;;17.10;53.70;;;;;;5069627;28;20418;-47
2022/05/15 05:38:27;;;;;;;4.60;4.17;;;17.10;54.00;;;;;;5069740;28;20203;-43
2022/05/15 05:40:53;;;;;;;4.50;4.10;;;16.90;54.20;;;;;;5068957;28;20334;-43
2022/05/15 05:43:18;;;;;;;6.00;4.50;;;16.70;54.70;;;;;;5070116;28;20257;-42
2022/05/15 05:45:44;;;;;;;5.07;3.93;;;16.90;54.50;;;;;;5067844;28;20605;-42
2022/05/15 05:48:10;;;;;;;3.90;3.30;;;17.00;53.80;;;;;;5069776;28;20290;-44
2022/05/15 05:50:37;;;;;;;5.10;3.23;;;17.10;53.70;;;;;;5068586;28;20219;-43
2022/05/15 05:53:03;;;;;;;4.33;3.53;;;17.30;53.50;;;;;;5069797;28;20275;-42
2022/05/15 05:55:29;;;;;;;3.60;3.30;;;17.20;53.90;;;;;;5069268;28;20444;-42
2022/05/15 05:57:54;;;;;;;4.43;3.43;;;17.30;54.10;;;;;;5069681;28;20561;-43
2022/05/15 06:00:29;;;;;;;5.00;3.33;;;17.50;53.80;;;;;;5071269;28;20652;-42
2022/05/15 06:04:39;;;;;;;6.40;4.00;;;17.60;53.50;;;;;;5064881;28;20265;-44
2022/05/15 06:05:41;;;;;;;4.60;3.47;;;17.90;53.00;;;;;;5071502;28;20473;-43
2022/05/15 06:08:07;;;;;;;3.40;3.03;;;18.10;52.80;;;;;;5073718;28;20492;-42
2022/05/15 06:10:32;;;;;;;3.93;3.53;;;18.20;52.00;;;;;;5072662;28;20215;-42
2022/05/15 06:12:58;;;;;;;4.20;3.30;;;18.30;51.70;;;;;;5071843;28;20434;-43
2022/05/15 06:15:23;;;;;;;4.00;3.47;;;18.30;51.80;;;;;;5072759;28;20616;-44
2022/05/15 06:17:49;;;;;;;6.87;3.83;;;18.50;51.60;;;;;;5073428;28;20246;-42
2022/05/15 06:20:14;;;;;;;7.90;3.27;;;18.80;51.40;;;;;;5072801;28;20195;-42
2022/05/15 06:22:41;;;;;;;4.27;3.50;;;19.00;50.90;;;;;;5072945;28;20888;-43
2022/05/15 06:25:07;;;;;;;3.60;3.30;;;19.30;50.40;;;;;;5072714;28;20265;-44
2022/05/15 06:27:32;;;;;;;6.33;3.50;;;19.50;49.90;;;;;;5073356;28;20466;-43
2022/05/15 06:29:58;;;;;;;3.70;3.40;;;19.70;49.70;;;;;;5072476;28;20535;-42
2022/05/15 06:32:26;;;;;;;4.83;3.80;;;19.90;50.00;;;;;;5072644;28;20203;-42
2022/05/15 06:34:52;;;;;;;3.30;3.00;;;20.00;50.00;;;;;;5072298;28;20214;-43
2022/05/15 06:37:17;;;;;;;3.20;3.00;;;20.20;49.40;;;;;;5073212;28;20429;-44
2022/05/15 06:39:43;;;;;;;4.93;3.30;;;20.40;48.60;;;;;;5071379;28;20815;-43
2022/05/15 06:42:09;;;;;;;4.40;3.70;;;20.70;48.10;;;;;;5072349;28;20191;-43
2022/05/15 06:44:34;;;;;;;8.33;3.13;;;20.90;47.90;;;;;;5072672;28;20980;-43
2022/05/15 06:47:00;;;;;;;5.20;3.20;;;21.10;46.90;;;;;;5072376;28;20430;-43
2022/05/15 06:49:26;;;;;;;3.17;2.87;;;21.40;46.40;;;;;;5072807;28;20224;-43
2022/05/15 06:51:51;;;;;;;3.57;3.23;;;21.50;46.30;;;;;;5072012;28;20192;-45
2022/05/15 06:54:17;;;;;;;4.43;2.73;;;21.60;46.50;;;;;;5072588;28;20269;-43
2022/05/15 06:59:27;;;;;;;5.73;2.87;;;22.10;46.50;;;;;;5072702;28;20564;-43
2022/05/15 07:01:53;;;;;;;5.13;3.20;;;22.20;46.80;;;;;;5071192;28;20545;-44
2022/05/15 07:04:18;;;;;;;3.13;2.80;;;22.40;46.30;;;;;;5060230;28;20916;-44
2022/05/15 07:06:44;;;;;;;4.17;3.23;;;22.70;45.40;;;;;;5070755;28;20198;-43
2022/05/15 07:09:09;;;;;;;3.53;2.90;;;22.90;45.20;;;;;;5072692;28;20220;-43
2022/05/15 07:11:35;;;;;;;3.40;2.97;;;23.00;44.80;;;;;;5070035;28;20196;-43
2022/05/15 07:14:01;;;;;;;3.97;2.77;;;23.10;44.60;;;;;;5072390;28;20592;-43
2022/05/15 07:16:26;;;;;;;4.60;2.80;;;23.20;44.20;;;;;;5071721;28;20188;-44
2022/05/15 07:18:52;;;;;;;3.40;2.80;;;23.40;44.30;;;;;;5071905;28;20192;-43
2022/05/15 07:21:18;;;;;;;4.23;2.80;;;23.60;44.60;;;;;;5071394;28;20214;-44
2022/05/15 07:23:44;;;;;;;2.60;2.40;;;23.70;44.10;;;;;;5072358;28;20269;-43
2022/05/15 07:26:10;;;;;;;2.80;2.60;;;23.90;43.30;;;;;;5071557;28;20188;-43
2022/05/15 07:28:35;;;;;;;3.80;2.80;;;24.10;43.80;;;;;;5072384;28;20437;-43
2022/05/15 07:31:01;;;;;;;3.73;3.30;;;24.20;43.10;;;;;;5070754;28;20679;-43
2022/05/15 07:33:28;;;;;;;7.70;3.40;;;24.50;42.40;;;;;;5070532;28;20253;-43
2022/05/15 07:35:56;;;;;;;4.33;2.83;;;24.70;42.60;;;;;;5071559;28;20188;-43
2022/05/15 07:38:23;;;;;;;5.20;2.53;;;24.90;42.60;;;;;;5071592;28;20484;-44
2022/05/15 07:40:48;;;;;;;5.10;2.77;;;25.00;41.80;;;;;;5070857;28;20448;-43
2022/05/15 07:43:14;;;;;;;6.70;2.70;;;25.20;41.90;;;;;;5071909;28;20434;-44
2022/05/15 07:45:41;;;;;;;4.60;2.70;;;25.30;41.10;;;;;;5071375;28;20188;-43
2022/05/15 07:48:07;;;;;;;2.60;2.47;;;25.40;42.10;;;;;;5071669;28;20446;-44
2022/05/15 07:50:34;;;;;;;3.00;2.70;;;25.60;41.30;;;;;;5070506;28;20592;-44
2022/05/15 07:53:00;;;;;;;3.60;2.70;;;25.90;40.70;;;;;;5071549;28;20509;-43
2022/05/15 07:55:25;;;;;;;3.93;3.10;;;26.10;40.50;;;;;;5070928;28;20514;-44
2022/05/15 07:57:51;;;;;;;4.13;2.67;;;26.30;40.60;;;;;;5071531;28;20564;-45
2022/05/15 08:00:18;;;;;;;2.90;2.43;;;26.40;40.20;;;;;;5069437;28;20183;-43
2022/05/15 08:02:44;;;;;;;3.07;2.43;;;26.30;38.90;;;;;;5064336;28;20259;-43
2022/05/15 08:08:09;;;;;;;4.30;3.00;;;26.60;37.90;;;;;;5071729;28;20520;-43
2022/05/15 08:10:44;;;;;;;5.17;2.60;;;26.90;37.40;;;;;;5070025;28;20577;-44
2022/05/15 08:13:12;;;;;;;4.90;2.60;;;27.20;37.10;;;;;;5071180;28;20453;-44
2022/05/15 08:15:38;;;;;;;3.47;2.47;;;27.30;37.20;;;;;;5070494;28;20441;-43
2022/05/15 08:23:41;;;;;;;2.80;2.33;;;27.70;35.70;;;;;;5070942;28;20449;-43
2022/05/15 08:26:07;;;;;;;4.37;2.70;;;27.60;34.90;;;;;;5069146;28;20811;-45
2022/05/15 08:28:34;;;;;;;2.73;2.10;;;27.50;35.30;;;;;;5070659;28;20434;-43
2022/05/15 08:31:01;;;;;;;4.23;2.30;;;27.50;35.30;;;;;;5069722;28;20478;-44
2022/05/15 08:33:27;;;;;;;4.03;2.27;;;27.90;35.20;;;;;;5070793;28;20430;-44
2022/05/15 08:35:53;;;;;;;3.00;2.00;;;27.90;34.60;;;;;;5070085;28;20419;-45
2022/05/15 08:38:19;;;;;;;5.60;2.50;;;28.00;34.20;;;;;;5070586;28;20298;-43
2022/05/15 08:41:07;;;;;;;2.13;1.80;;;27.80;33.40;;;;;;5070027;28;20261;-44
2022/05/15 08:43:41;;;;;;;2.50;2.13;;;27.90;34.20;;;;;;5070840;28;20418;-43
2022/05/15 08:46:26;;;;;;;3.83;2.27;;;28.00;33.70;;;;;;5068979;28;20444;-48
2022/05/15 08:48:57;;;;;;;3.00;2.37;;;27.80;33.80;;;;;;5070391;28;20780;-46
2022/05/15 08:51:23;;;;;;;4.33;2.10;;;28.00;33.40;;;;;;5069534;28;20430;-45
2022/05/15 08:53:50;;;;;;;4.23;1.93;;;28.30;32.80;;;;;;5068885;28;20427;-48
2022/05/15 08:56:16;;;;;;;2.87;2.03;;;28.60;31.50;;;;;;5070336;28;20552;-45
2022/05/15 08:58:52;;;;;;;4.93;1.87;;;28.40;30.90;;;;;;5070542;28;20419;-45
2022/05/15 09:01:24;;;;;;;5.73;1.90;;;28.40;32.60;;;;;;5069300;28;21074;-44
2022/05/15 09:03:51;;;;;;;5.90;2.30;;;28.50;32.00;;;;;;5057401;28;20521;-48
2022/05/15 09:06:23;;;;;;;3.87;1.80;;;28.90;31.50;;;;;;5069932;28;20433;-46
2022/05/15 09:09:04;;;;;;;2.00;1.80;;;29.40;30.60;;;;;;5070194;28;20444;-46
2022/05/15 09:11:32;;;;;;;3.23;2.27;;;29.60;30.60;;;;;;5069344;28;20449;-47
2022/05/15 09:14:10;;;;;;;2.50;2.00;;;29.70;29.70;;;;;;5070173;28;20426;-46
2022/05/15 09:16:39;;;;;;;3.17;2.30;;;29.70;30.60;;;;;;5069457;28;20564;-43
2022/05/15 09:19:08;;;;;;;4.37;1.80;;;29.70;30.30;;;;;;5070215;28;20426;-48
2022/05/15 09:21:34;;;;;;;4.00;1.97;;;29.90;29.90;;;;;;5067590;28;20426;-48
2022/05/15 09:24:14;;;;;;;3.20;2.03;;;29.60;30.30;;;;;;5070135;28;20971;-44
2022/05/15 09:26:47;;;;;;;5.47;2.27;;;29.70;30.00;;;;;;5069505;28;20793;-44
2022/05/15 09:29:26;;;;;;;3.27;1.80;;;29.90;30.00;;;;;;5070220;28;20426;-47
2022/05/15 09:31:52;;;;;;;2.47;2.13;;;30.00;29.10;;;;;;5069212;28;20474;-45
2022/05/15 09:34:26;;;;;;;1.90;1.80;;;29.90;29.10;;;;;;5069300;28;20461;-46
2022/05/15 09:38:26;;;;;;;2.43;1.93;;;30.30;29.40;;;;;;5069542;28;20192;-47
2022/05/15 09:39:44;;;;;;;3.00;2.20;;;30.60;29.00;;;;;;5069768;28;20841;-47
2022/05/15 09:45:18;;;;;;;2.77;2.00;;;31.10;28.90;;;;;;5069326;28;20500;-46
2022/05/15 09:48:05;;;;;;;5.40;2.00;;;31.20;28.80;;;;;;5068327;28;20430;-45
2022/05/15 09:50:37;;;;;;;3.63;1.93;;;31.00;28.30;;;;;;5068836;28;20499;-47
2022/05/15 09:53:08;;;;;;;3.00;2.00;;;31.10;28.30;;;;;;5069722;28;20427;-46
2022/05/15 09:55:34;;;;;;;2.87;2.10;;;30.70;27.90;;;;;;5069163;28;20414;-48
2022/05/15 09:58:04;;;;;;;4.43;1.70;;;30.90;28.70;;;;;;5069823;28;20426;-44
2022/05/15 10:00:34;;;;;;;3.00;1.77;;;30.80;27.60;;;;;;5068529;28;20238;-48
2022/05/15 10:03:22;;;;;;;2.07;1.70;;;31.20;28.10;;;;;;5060316;28;20839;-45
2022/05/15 10:06:02;;;;;;;3.07;1.70;;;31.00;27.30;;;;;;5068451;28;20430;-48
2022/05/15 10:08:30;;;;;;;2.33;1.97;;;31.20;27.90;;;;;;5069767;28;20414;-44
2022/05/15 10:11:19;;;;;;;2.27;1.87;;;31.30;27.30;;;;;;5068601;28;20489;-43
2022/05/15 10:13:50;;;;;;;2.67;2.40;;;31.50;27.00;;;;;;5063619;28;20448;-46
2022/05/15 10:16:23;;;;;;;3.33;1.97;;;31.40;27.90;;;;;;5068468;28;20418;-48
2022/05/15 10:18:58;;;;;;;1.90;1.80;;;31.00;27.50;;;;;;5069654;28;20496;-48
2022/05/15 10:21:28;;;;;;;2.20;2.10;;;30.30;28.30;;;;;;5068452;28;20540;-44
2022/05/15 10:23:57;;;;;;;3.30;1.83;;;30.30;28.80;;;;;;5069537;28;20441;-49
2022/05/15 10:26:32;;;;;;;2.30;2.00;;;31.00;28.10;;;;;;5067655;28;20808;-48
2022/05/15 10:29:03;;;;;;;3.03;1.97;;;31.40;28.00;;;;;;5069404;28;20422;-45
2022/05/15 10:31:38;;;;;;;2.90;2.60;;;31.80;28.10;;;;;;5068569;28;20433;-48
2022/05/15 10:34:23;;;;;;;1.70;1.60;;;32.40;28.00;;;;;;5069482;28;20421;-49
2022/05/15 10:37:14;;;;;;;2.87;2.20;;;32.70;27.50;;;;;;5069046;28;20418;-46
2022/05/15 10:40:05;;;;;;;2.87;2.10;;;33.10;27.60;;;;;;5069079;28;20438;-46
2022/05/15 10:42:47;;;;;;;3.10;1.90;;;33.10;26.50;;;;;;5067965;28;20430;-46
2022/05/15 10:45:37;;;;;;;2.23;2.03;;;32.70;26.80;;;;;;5069482;28;20426;-44
2022/05/15 10:48:54;;;;;;;2.30;2.10;;;33.00;27.40;;;;;;5072807;28;20452;-45
2022/05/15 10:51:48;;;;;;;5.57;3.13;;;33.50;26.00;;;;;;5053928;28;20851;-46
2022/05/15 10:57:32;;;;;;;2.40;2.20;;;34.10;26.10;;;;;;5072545;28;20469;-44
2022/05/15 11:00:07;;;;;;;3.13;2.20;;;34.00;26.00;;;;;;5072239;28;20538;-46
2022/05/15 11:02:49;;;;;;;3.20;1.93;;;33.90;25.50;;;;;;5066829;28;20486;-48
2022/05/15 11:05:41;;;;;;;4.90;2.00;;;34.00;25.80;;;;;;5066928;28;20438;-46
2022/05/15 11:08:18;;;;;;;2.40;2.20;;;34.30;25.30;;;;;;5049225;28;20989;-47
2022/05/15 11:10:49;;;;;;;3.60;2.40;;;34.40;25.90;;;;;;5071700;28;20474;-49
2022/05/15 11:13:30;;;;;;;2.70;2.50;;;34.70;26.20;;;;;;5072502;28;20432;-48
2022/05/15 11:16:11;;;;;;;2.10;1.80;;;34.90;24.70;;;;;;5071843;28;20446;-47
2022/05/15 11:19:05;;;;;;;3.00;2.20;;;35.10;25.50;;;;;;5072290;28;20499;-44
2022/05/15 11:21:43;;;;;;;3.50;2.20;;;34.90;24.20;;;;;;5071542;28;20449;-47
2022/05/15 11:24:18;;;;;;;2.23;1.90;;;35.10;24.40;;;;;;5072306;28;20460;-45
2022/05/15 11:26:50;;;;;;;3.23;2.27;;;35.20;24.00;;;;;;5071875;28;20430;-45
2022/05/15 11:29:18;;;;;;;7.63;2.23;;;34.70;24.60;;;;;;5072083;28;20889;-45
2022/05/15 11:31:56;;;;;;;2.90;1.80;;;34.90;24.80;;;;;;5071416;28;20437;-48
2022/05/15 11:35:00;;;;;;;3.13;2.00;;;35.20;25.20;;;;;;5071974;28;20433;-46
2022/05/15 11:37:38;;;;;;;3.07;2.00;;;35.30;24.10;;;;;;5071967;28;20422;-46
2022/05/15 11:40:10;;;;;;;2.20;2.10;;;35.40;24.70;;;;;;5070957;28;20503;-46
2022/05/15 11:42:36;;;;;;;2.80;1.80;;;34.90;24.30;;;;;;5072011;28;20876;-45
2022/05/15 11:45:40;;;;;;;3.97;2.20;;;35.10;24.50;;;;;;5071304;28;20506;-45
2022/05/15 11:48:20;;;;;;;1.73;1.53;;;34.80;24.30;;;;;;5071383;28;20441;-49
2022/05/15 11:51:22;;;;;;;2.00;1.90;;;34.90;25.20;;;;;;5070543;28;20980;-46
2022/05/15 11:53:50;;;;;;;1.80;1.70;;;35.20;24.90;;;;;;5065782;28;20472;-46
2022/05/15 11:56:23;;;;;;;5.13;2.33;;;35.60;25.20;;;;;;5071526;28;20426;-45
2022/05/15 11:59:01;;;;;;;2.90;2.23;;;35.60;24.60;;;;;;5070998;28;20434;-45
2022/05/15 12:01:38;;;;;;;2.50;1.63;;;35.80;24.60;;;;;;5069894;28;20489;-46
2022/05/15 12:04:25;;;;;;;2.60;2.40;;;36.00;23.70;;;;;;5058049;28;20444;-46
2022/05/15 12:06:56;;;;;;;4.97;2.20;;;36.20;23.60;;;;;;5070792;28;20434;-44
2022/05/15 12:09:22;;;;;;;2.13;2.00;;;36.20;24.80;;;;;;5071066;28;20508;-48
2022/05/15 12:11:50;;;;;;;3.13;2.47;;;36.00;23.50;;;;;;5070277;28;20448;-45
2022/05/15 12:14:21;;;;;;;2.97;2.70;;;36.20;24.30;;;;;;5071604;28;20471;-45
2022/05/15 12:17:17;;;;;;;6.37;2.43;;;36.40;23.90;;;;;;5070962;28;20493;-45
2022/05/15 12:19:45;;;;;;;3.53;2.20;;;36.10;23.90;;;;;;5071042;28;20438;-44
2022/05/15 12:22:14;;;;;;;2.63;2.20;;;36.10;23.60;;;;;;5070908;28;20449;-49
2022/05/15 12:24:48;;;;;;;3.27;2.47;;;36.40;24.20;;;;;;5071075;28;20461;-46
2022/05/15 12:27:16;;;;;;;2.80;2.10;;;36.20;24.60;;;;;;5071115;28;20924;-48
2022/05/15 12:29:58;;;;;;;2.67;2.40;;;36.10;23.70;;;;;;5069394;28;20505;-46
2022/05/15 12:32:34;;;;;;;4.00;1.90;;;36.00;23.40;;;;;;5070829;28;20441;-44
2022/05/15 12:35:00;;;;;;;3.07;2.00;;;36.20;23.20;;;;;;5070322;28;20925;-44
2022/05/15 12:37:31;;;;;;;6.27;2.33;;;36.50;23.40;;;;;;5070933;28;20434;-48
2022/05/15 12:40:00;;;;;;;2.20;2.00;;;36.70;23.10;;;;;;5069850;28;20198;-48
2022/05/15 12:42:34;;;;;;;2.40;2.20;;;36.80;23.40;;;;;;5070407;28;20520;-45
2022/05/15 12:45:04;;;;;;;3.40;2.00;;;36.70;22.70;;;;;;5070338;28;20483;-46
2022/05/15 12:47:32;;;;;;;2.87;2.57;;;36.60;24.20;;;;;;5070528;28;20442;-45
2022/05/15 12:50:02;;;;;;;4.67;2.43;;;36.40;24.40;;;;;;5069452;28;20485;-45
2022/05/15 12:52:31;;;;;;;2.00;1.80;;;36.30;23.80;;;;;;5070272;28;20898;-44
2022/05/15 12:55:04;;;;;;;2.83;2.50;;;36.10;23.70;;;;;;5070048;28;20928;-44
2022/05/15 12:57:30;;;;;;;2.60;2.40;;;35.70;23.80;;;;;;5068989;28;20798;-45
2022/05/15 12:59:56;;;;;;;2.33;2.13;;;36.00;23.40;;;;;;5069374;28;20927;-46
2022/05/15 13:02:31;;;;;;;5.57;2.10;;;36.20;24.40;;;;;;5066172;28;20451;-45
2022/05/15 13:04:58;;;;;;;4.07;2.00;;;36.20;23.50;;;;;;5062618;28;20450;-45
2022/05/15 13:07:30;;;;;;;4.20;2.73;;;36.30;23.10;;;;;;5070421;28;20478;-48
2022/05/15 13:09:58;;;;;;;4.17;2.90;;;36.50;23.00;;;;;;5068381;28;21041;-46
2022/05/15 13:12:24;;;;;;;2.23;2.00;;;36.20;24.40;;;;;;5070290;28;20433;-45
2022/05/15 13:14:51;;;;;;;2.20;2.00;;;36.20;23.40;;;;;;5069606;28;20785;-48
2022/05/15 13:17:32;;;;;;;2.20;1.83;;;36.30;23.40;;;;;;5070343;28;20426;-46
2022/05/15 13:19:58;;;;;;;2.40;1.90;;;36.40;22.60;;;;;;5069058;28;20453;-49